• Join FlightAware (Why Join?)
  • Login
  • US Flag 
11:02AM EDT


 

Airport Tracker/Info


-or-


 

Live Flight TrackerFlight Track Log ✈ DAL4034 ✈ 01-Jul-2014 ✈ KDTW - KMHT

Flight Track Log - Related Links

Times and Time Zones

All times are in EDT time to prevent confusion due to time zone crossing. See the DAL4034 flight status page for this flight to view local times or setup timezone preferences in your user account.

Time Position Orientation Groundspeed Altitude Reporting Facility
EDT Latitude Longitude Course Direction KTS MPH feet Rate Location/Type
12:57PM 42.2028 -83.3553 176° South 147 169 1,300  Level Cleveland Center
12:58PM 42.1486 -83.3506 176° South 206 237 3,200 1,560 Climbing Cleveland Center
12:59PM 42.1294 -83.3436 165° South 186 214 4,000 1,620 Climbing Cleveland Center
12:59PM 42.1050 -83.2939 124° Southeast 292 336 4,900 1,920 Climbing Cleveland Center
01:00PM 42.0911 -83.2403 109° East 275 316 6,000 2,340 Climbing Cleveland Center
01:00PM 42.0886 -83.1789 93° East 327 376 7,300 2,460 Climbing Cleveland Center
01:01PM 42.1094 -83.1164 66° East 324 373 8,600 2,340 Climbing Cleveland Center
01:01PM 42.1283 -83.0692 62° Northeast 330 380 9,700 1,920 Climbing Cleveland Center
01:02PM 42.1525 -83.0089 62° Northeast 326 375 10,600 1,080 Climbing Cleveland Center
01:03PM 42.2003 -82.8869 62° Northeast 367 422 11,500 1,020 Climbing Cleveland Center
01:04PM 42.2533 -82.7525 62° Northeast 401 461 12,800 1,320 Climbing Cleveland Center
01:05PM 42.3067 -82.6147 62° Northeast 411 473 14,300 1,440 Climbing Cleveland Center
01:06PM 42.3656 -82.4439 65° Northeast 423 487 15,800 1,320 Climbing Cleveland Center
01:07PM 42.3628 -82.2881 91° East 418 481 17,100 1,140 Climbing Cleveland Center
01:08PM 42.3561 -82.1294 93° East 422 486 18,200 960 Climbing Cleveland Center
01:09PM 42.3486 -81.9694 94° East 422 486 19,200 960 Climbing Cleveland Center
01:10PM 42.3492 -81.8083 90° East 423 487 20,300 960 Climbing Cleveland Center
01:11PM 42.3633 -81.6481 83° East 423 487 21,300 960 Climbing Cleveland Center
01:12PM 42.3781 -81.4628 84° East 423 487 22,300 720 Climbing Cleveland Center
01:13PM 42.3908 -81.3019 84° East 424 488 22,800 480 Climbing Cleveland Center
01:14PM 42.4044 -81.1383 84° East 431 496 23,300 480 Climbing Cleveland Center
01:15PM 42.4181 -80.9733 84° East 434 499 23,800 480 Climbing Cleveland Center
01:16PM 42.4306 -80.8067 84° East 439 505 24,300 480 Climbing Cleveland Center
01:17PM 42.4431 -80.6397 84° East 440 506 24,800 480 Climbing Cleveland Center
01:18PM 42.4553 -80.4703 84° East 443 510 25,400 480 Climbing Cleveland Center
01:19PM 42.4675 -80.3019 84° East 447 514 25,900 480 Climbing Cleveland Center
01:20PM 42.4803 -80.1342 84° East 444 511 26,400 480 Climbing Cleveland Center
01:21PM 42.4919 -79.9483 85° East 446 513 26,900 240 Climbing Cleveland Center
01:22PM 42.5031 -79.7794 85° East 448 516 27,000  Climbing Cleveland Center
01:23PM 42.5150 -79.6083 85° East 455 524 27,000  Level Cleveland Center
01:25PM 42.5275 -79.3986 85° East 463 533 27,000  Level Cleveland Center
01:26PM 42.5386 -79.2228 85° East 469 540 27,000 240 Level Cleveland Center
01:27PM 42.5486 -79.0481 85° East 468 539 27,500 480 Climbing Cleveland Center
01:28PM 42.5583 -78.8761 86° East 460 529 28,000 480 Climbing Cleveland Center
01:29PM 42.5689 -78.7075 85° East 453 521 28,500 480 Climbing Cleveland Center
01:30PM 42.5794 -78.5403 85° East 446 513 29,000 240 Climbing Cleveland Center
01:31PM 42.5883 -78.3728 86° East 445 512 29,000  Level Cleveland Center
01:32PM 42.5997 -78.1669 86° East 454 522 29,000  Level Cleveland Center
01:33PM 42.6092 -77.9931 86° East 461 531 29,000  Level Cleveland Center
01:34PM 42.6175 -77.8181 86° East 464 534 29,000  Level Cleveland Center
01:35PM 42.6278 -77.6183 86° East 473 544 29,000  Level Cleveland Center
01:36PM 42.6356 -77.4406 87° East 476 548 29,000  Level Cleveland Center
01:37PM 42.6433 -77.2647 86° East 474 545 29,000  Level Cleveland Center
01:38PM 42.6517 -77.0878 86° East 474 545 29,000  Level Cleveland Center
01:39PM 42.6594 -76.9111 87° East 473 544 29,000  Level Cleveland Center
01:40PM 42.6658 -76.7336 87° East 473 544 29,000  Level Cleveland Center
01:41PM 42.6747 -76.5189 87° East 473 544 29,000  Level Cleveland Center
01:42PM 42.6803 -76.3411 88° East 472 543 29,000  Level Cleveland Center
01:43PM 42.6881 -76.1644 87° East 472 543 29,000  Level Cleveland Center
01:44PM 42.6944 -75.9881 87° East 472 543 29,000  Level Cleveland Center
01:45PM 42.7000 -75.8100 88° East 472 543 29,000  Level Cleveland Center
01:46PM 42.7083 -75.5594 87° East 473 544 29,000  Level Boston Center
01:48PM 42.7133 -75.3833 88° East 473 544 29,000  Level Boston Center
01:49PM 42.7183 -75.2031 88° East 473 544 29,000  Level Boston Center
01:50PM 42.7242 -75.0050 88° East 473 544 29,000  Level Boston Center
01:51PM 42.7278 -74.8269 88° East 473 544 29,000  Level Boston Center
01:52PM 42.7319 -74.6500 88° East 473 544 29,000  Level Boston Center
01:53PM 42.7350 -74.4717 89° East 473 544 29,000  Level Boston Center
01:54PM 42.7378 -74.2942 89° East 473 544 29,000  Level Boston Center
01:55PM 42.7419 -74.1136 88° East 473 544 29,000 -180 Level Boston Center
01:56PM 42.7453 -73.9353 88° East 473 544 28,700 -900 Descending Boston Center
01:57PM 42.7481 -73.7550 89° East 476 548 27,200 -900 Descending Boston Center
01:58PM 42.7553 -73.5789 87° East 472 543 27,000 -1,140 Descending Boston Center
01:59PM 42.7631 -73.3672 87° East 466 536 24,900 -1,620 Descending Boston Center
02:00PM 42.7692 -73.1975 87° East 455 524 23,700 -1,380 Descending Boston Center
02:01PM 42.7739 -73.0308 88° East 442 509 22,200 -1,440 Descending Boston Center
02:02PM 42.7806 -72.8806 86° East 437 503 20,800 -2,100 Descending Boston Center
02:03PM 42.8011 -72.7083 81° East 421 484 18,000 -2,580 Descending Boston Center
02:04PM 42.8164 -72.5625 82° East 394 453 15,500 -2,460 Descending Boston Center
02:05PM 42.8314 -72.4178 82° East 388 447 13,000 -2,340 Descending Boston Center
02:06PM 42.8492 -72.2628 81° East 380 437 10,800 -1,560 Descending Boston Center
02:07PM 42.8622 -72.1319 82° East 325 374 9,800 -900 Descending Boston Center
02:08PM 42.8731 -72.0194 82° East 306 352 9,000 -480 Descending Boston Center
02:09PM 42.8917 -71.8978 78° East 304 350 8,900 -720 Descending Boston Center
02:10PM 42.9258 -71.7917 66° East 304 350 7,600 -1,320 Descending Boston Center
02:11PM 42.9589 -71.6897 66° East 296 341 6,200 -1,500 Descending Boston Center
02:12PM 42.9944 -71.5839 65° Northeast 286 329 4,600 -1,620 Descending Boston Center
02:13PM 43.0269 -71.4881 65° Northeast 280 322 2,900 -1,020 Descending Boston Center
02:14PM 43.0556 -71.4083 64° Northeast 231 266 2,500 -420 Descending Boston Center
02:15PM 43.0222 -71.3725 142° Southeast 180 207 2,100 -600 Descending Boston Center
02:16PM 42.9783 -71.3878 194° South 153 176 1,300 -840 Descending Boston Center
02:17PM 42.9514 -71.4206 222° Southwest 132 152 500 -840 Descending Boston Center
02:19PM 42.9328 -71.4358 203° Southwest  Level Estimated
02:26PM 42.9328 -71.4358 203° Southwest  Level Estimated